.
Local / Fort Wayne - NE Ind.

U N D E R   C O N S T R U C T I O N

Local Weather
Fort Wayne – NE Indiana

Northern Indiana (IWX) Radar

Latest IWX NEXRAD
Base Reflectivity



Latest IWX NEXRAD
Base Velocity

Indiana-Ohio Visible Satellite

For infrared and water vapor imagery, see Great Lakes - Midwest.

Current Conditions

Recent report from the Fort Wayne International Airport

Feb 19, 2019 - 07:54 AM EST / 2019.02.19 1254 UTC


The skies are mostly cloudy. The temperature is 19.0 F (-7.2 C) and the dew point is 15.1 F (-9.4 C), giving a relative humidity of 84%. The barometric pressure is 30.63 in. Hg (1037 hPa). The wind is Calm, and the visibility is 10 mile(s).

KFWA 191254Z 00000KT 10SM FEW031 BKN240 M07/M09 A3063 RMK AO2 SLP385 T10721094

Local Weather — Contents

Local Weather — Links

CoCoRaHS
IN-AL-39
A2 Web Hosting
Creative Commons License
GoDaddy
search engine by freefind advanced

loaded 2019-02-19 08:25:20 • last modified 2017-02-11 13:27:36
Privacy PolicyDisclaimer
• wx.awcolley.com is powered by PmWiki v.2002016 •
• all content (unless otherwise noted) © 2019 A W Colley